ESGT/THN METAR and TAF weather

Enter ICAO airport designator
Station Type Date Time Source
ESGT METAR 2022/01/26 13:20 UTC NOAA

ESGT 261320Z 26015KT CAVOK 06/M01 Q1010


Station Type Date Time Source
ESGT Decoded METAR 2022/01/26 13:20 UTC NOAA

Trollhattan Private , Sweden (ESGT) 58-19N 012-21E
Jan 26, 2022 - 08:20 AM EST / 2022.01.26 1320 UTC
Wind: from the W (260 degrees) at 17 MPH (15 KT):0
Visibility: greater than 7 mile(s):0
Temperature: 42 F (6 C)
Dew Point: 30 F (-1 C)
Relative Humidity: 60%
Pressure (altimeter): 29.83 in. Hg (1010 hPa)
ob: ESGT 261320Z 26015KT CAVOK 06/M01 Q1010
cycle: 13

Station Type Date Time Source
ESGT TAF 2016/08/12 05:58 UTC NOAA

TAF ESGT 120430Z 1205/1224 18007KT 9999 FEW030

Example: see airport list